Pearl Of Scandinavia — OWFU2 — position and weather

sailwx.info

Track history (hours):
 
Tides and Currents Weather Stations Pressure Air Temp Water Temp Dewpoint Dewpoint Depression Visibility Wind Speed Wind Dir Waves Ship Positions

Pearl Of Scandinavia

Last reported at 2014-Oct-31 11:31 UTC. Time now 2014-Oct-31 12:08 UTC.
Position N 55°42' E 012°36'.

Length 176.4 m; beam 34 m; draft 6.215 m.

Type: Ship. MMSI: 219945000.

Date/timePositionNaut miles runAvg speedWind from/ knotsBaromVisibWave heightAir tempDewpointWater temp
2014-Oct-31 11:31N 55°42' E 012°36'0 0.0
2014-Oct-31 10:31N 55°42' E 012°36'0 0.0
2014-Oct-31 09:31N 55°42' E 012°36'0 0.4
2014-Oct-31 08:33N 55°42' E 012°36'1110.7
2014-Oct-31 07:34N 55°53' E 012°40'1313.1
2014-Oct-31 06:33N 56°06' E 012°34'1414.4
2014-Oct-31 05:33N 56°18' E 012°23'1615.5
2014-Oct-31 04:31N 56°34' E 012°17'1515.5
2014-Oct-31 03:33N 56°49' E 012°11'1616.0
2014-Oct-31 02:32N 57°04' E 012°00'1616.7
2014-Oct-31 01:33N 57°19' E 011°47'1717.0
2014-Oct-31 00:33N 57°33' E 011°30'1716.9
2014-Oct-30 23:34N 57°49' E 011°17'1716.8
2014-Oct-30 22:34N 58°05' E 011°08'1716.7
2014-Oct-30 21:33N 58°21' E 010°59'1716.7
2014-Oct-30 20:33N 58°37' E 010°50'1716.6
2014-Oct-30 19:34N 58°53' E 010°44'1716.7
2014-Oct-30 18:33N 59°09' E 010°38'1717.3
2014-Oct-30 17:33N 59°26' E 010°33'1914.9
2014-Oct-30 16:16N 59°46' E 010°33'1014.0
2014-Oct-30 15:33N 59°54' E 010°44'0 0.4
2014-Oct-30 14:32N 59°54' E 010°45'0 0.0
2014-Oct-30 13:32N 59°54' E 010°45'0 0.0
2014-Oct-30 12:32N 59°54' E 010°45'0 0.0
2014-Oct-30 11:20N 59°54' E 010°45'0 0.0
2014-Oct-30 10:23N 59°54' E 010°45'0 0.0
2014-Oct-30 09:20N 59°54' E 010°45'0 0.1
2014-Oct-30 08:33N 59°54' E 010°45'2813.3
2014-Oct-30 06:27N 59°27' E 010°34'1415.6
2014-Oct-30 05:33N 59°13' E 010°38'1615.9
2014-Oct-30 04:33N 58°57' E 010°43'1716.2
2014-Oct-30 03:29N 58°40' E 010°49'1617.1
2014-Oct-30 02:34N 58°24' E 010°56'1717.0
2014-Oct-30 01:33N 58°08' E 011°07'1717.0
2014-Oct-30 00:33N 57°52' E 011°16'1716.6
2014-Oct-29 23:33N 57°36' E 011°25'1616.4
2014-Oct-29 22:33N 57°21' E 011°34'1816.3
2014-Oct-29 21:27N 57°04' E 011°44'1516.4
2014-Oct-29 20:32N 56°50' E 011°55'1616.3
2014-Oct-29 19:33N 56°36' E 012°10'1716.6
2014-Oct-29 18:33N 56°21' E 012°22'1616.1
2014-Oct-29 17:33N 56°06' E 012°34'1414.3
2014-Oct-29 16:33N 55°53' E 012°44'1212.0
2014-Oct-29 15:33N 55°42' E 012°36'0 0.0
2014-Oct-29 14:31N 55°42' E 012°36'0 0.0
2014-Oct-29 13:31N 55°42' E 012°36'0 0.0
2014-Oct-29 12:31N 55°42' E 012°36'0 0.0
2014-Oct-29 11:31N 55°42' E 012°36'0 0.0
2014-Oct-29 10:31N 55°42' E 012°36'0 0.0
2014-Oct-29 09:28N 55°42' E 012°36'4 4.2
2014-Oct-29 08:33N 55°45' E 012°40'1716.7
2014-Oct-29 07:33N 56°02' E 012°40'1616.4
2014-Oct-29 06:33N 56°16' E 012°25'1716.8
2014-Oct-29 05:31N 56°32' E 012°15'1616.5
2014-Oct-29 04:33N 56°48' E 012°07'1716.5
2014-Oct-29 03:33N 57°03' E 011°58'1716.6
2014-Oct-29 02:33N 57°19' E 011°46'1716.9
2014-Oct-29 01:33N 57°33' E 011°30'1716.7
2014-Oct-29 00:33N 57°49' E 011°17'1615.9
2014-Oct-28 23:33N 58°03' E 011°07'1514.6
2014-Oct-28 22:33N 58°18' E 011°00'1414.3
2014-Oct-28 21:33N 58°31' E 010°53'1414.0
2014-Oct-28 20:33N 58°45' E 010°46'1413.9
2014-Oct-28 19:34N 58°59' E 010°42'1515.1
2014-Oct-28 18:33N 59°14' E 010°37'1616.1
2014-Oct-28 17:33N 59°30' E 010°34'2512.6
2014-Oct-28 15:33N 59°54' E 010°45'0 0.0
2014-Oct-28 14:33N 59°54' E 010°45'0 0.0
2014-Oct-28 13:33N 59°54' E 010°45'0 0.0
2014-Oct-28 11:18N 59°54' E 010°45'0 0.0
2014-Oct-28 10:24N 59°54' E 010°45'0 0.0
2014-Oct-28 09:24N 59°54' E 010°45'0 0.0
2014-Oct-28 08:33N 59°54' E 010°45'2813.0
2014-Oct-28 06:26N 59°27' E 010°34'1516.8
2014-Oct-28 05:33N 59°13' E 010°38'1616.2
2014-Oct-28 04:33N 58°57' E 010°42'1616.0
2014-Oct-28 03:33N 58°41' E 010°46'1615.9
2014-Oct-28 02:33N 58°26' E 010°56'1616.0
2014-Oct-28 01:33N 58°10' E 011°05'1616.1
2014-Oct-28 00:33N 57°55' E 011°15'1616.0
2014-Oct-27 23:33N 57°40' E 011°23'1616.3
2014-Oct-27 22:33N 57°24' E 011°32'1616.4
2014-Oct-27 21:33N 57°09' E 011°41'1616.1
2014-Oct-27 20:33N 56°53' E 011°51'1615.7
2014-Oct-27 19:33N 56°40' E 012°07'1716.6
2014-Oct-27 18:33N 56°25' E 012°19'1716.6
2014-Oct-27 17:34N 56°10' E 012°30'1615.6
2014-Oct-27 16:34N 55°56' E 012°43'1414.1
2014-Oct-27 15:33N 55°43' E 012°37'1 0.6
2014-Oct-27 14:32N 55°42' E 012°36'0 0.0
2014-Oct-27 13:32N 55°42' E 012°36'0 0.0
2014-Oct-27 12:32N 55°42' E 012°36'0 0.0
2014-Oct-27 11:32N 55°42' E 012°36'0 0.0
2014-Oct-27 10:32N 55°42' E 012°36'0 0.0
2014-Oct-27 09:32N 55°42' E 012°36'0 0.4
2014-Oct-27 08:34N 55°42' E 012°36'1514.6
2014-Oct-27 07:33N 55°57' E 012°40'1817.5
2014-Oct-27 06:33N 56°13' E 012°27'1717.5
2014-Oct-27 05:33N 56°29' E 012°17'1717.0
2014-Oct-27 04:33N 56°46' E 012°08'1717.0
2014-Oct-27 03:33N 57°02' E 011°59'1717.1
2014-Oct-27 02:33N 57°18' E 011°48'1817.9
2014-Oct-27 01:33N 57°33' E 011°30'1717.0
2014-Oct-27 00:34N 57°48' E 011°17'1615.6
2014-Oct-26 23:33N 58°03' E 011°08'1514.8
2014-Oct-26 22:33N 58°18' E 011°01'1414.0
2014-Oct-26 21:33N 58°31' E 010°53'1313.1
2014-Oct-26 20:33N 58°44' E 010°47'1313.3
2014-Oct-26 19:34N 58°57' E 010°43'1414.2
2014-Oct-26 18:33N 59°11' E 010°38'1616.2
2014-Oct-26 17:33N 59°27' E 010°33'2813.9
2014-Oct-26 15:33N 59°54' E 010°44'1 0.5
2014-Oct-26 14:31N 59°54' E 010°45'0 0.0
2014-Oct-26 13:31N 59°54' E 010°45'0 0.0
2014-Oct-26 12:22N 59°54' E 010°45'0 0.0
2014-Oct-26 11:34N 59°54' E 010°45'0 0.0
2014-Oct-26 10:25N 59°54' E 010°45'0 0.0
2014-Oct-26 09:25N 59°54' E 010°45'0 0.2
2014-Oct-26 08:33N 59°54' E 010°45'3213.2
2014-Oct-26 06:07N 59°22' E 010°35'916.0
2014-Oct-26 05:33N 59°13' E 010°38'1615.7
2014-Oct-26 04:34N 58°58' E 010°42'1515.1
2014-Oct-26 03:32N 58°42' E 010°45'1515.6
2014-Oct-26 02:33N 58°28' E 010°53'1615.6
2014-Oct-26 01:33N 58°13' E 011°02'1615.5
2014-Oct-26 00:33N 57°58' E 011°12'1515.5
2014-Oct-25 23:34N 57°43' E 011°20'1515.1
2014-Oct-25 22:34N 57°29' E 011°29'1515.0
2014-Oct-25 21:34N 57°15' E 011°37'1515.1
2014-Oct-25 20:34N 57°00' E 011°46'1515.0
2014-Oct-25 19:33N 56°46' E 011°55'1514.7
2014-Oct-25 18:33N 56°32' E 012°01'1414.5
2014-Oct-25 17:33N 56°20' E 012°16'1514.6
2014-Oct-25 16:33N 56°08' E 012°31'1514.6
2014-Oct-25 15:34N 55°56' E 012°44'1413.7
2014-Oct-25 14:33N 55°42' E 012°36'0 0.4
2014-Oct-25 13:32N 55°42' E 012°36'0 0.0
2014-Oct-25 12:32N 55°42' E 012°36'0 0.0
2014-Oct-25 11:32N 55°42' E 012°36'0 0.0
2014-Oct-25 10:32N 55°42' E 012°36'0 0.0
2014-Oct-25 09:32N 55°42' E 012°36'0 0.0
2014-Oct-25 08:32N 55°42' E 012°36'3 2.7
2014-Oct-25 07:33N 55°44' E 012°40'1515.4
2014-Oct-25 06:33N 55°59' E 012°40'1717.0
2014-Oct-25 05:33N 56°14' E 012°25'2118.1
2014-Oct-25 04:24N 56°34' E 012°13'1517.8
2014-Oct-25 03:33N 56°48' E 012°07'1817.7
2014-Oct-25 02:33N 57°05' E 011°58'2017.1
2014-Oct-25 01:24N 57°23' E 011°41'1416.6
2014-Oct-25 00:33N 57°34' E 011°26'1717.0
2014-Oct-24 23:33N 57°48' E 011°07'1616.2
2014-Oct-24 22:33N 58°03' E 010°56'1616.5
2014-Oct-24 21:33N 58°19' E 010°45'1615.5
2014-Oct-24 20:33N 58°33' E 010°35'1715.1
2014-Oct-24 19:25N 58°51' E 010°35'1213.9
2014-Oct-24 18:33N 59°02' E 010°37'1313.4
2014-Oct-24 17:33N 59°16' E 010°36'1413.5
2014-Oct-24 16:33N 59°29' E 010°34'2512.6
2014-Oct-24 14:34N 59°54' E 010°44'0 0.2
2014-Oct-24 13:30N 59°54' E 010°45'0 0.0
2014-Oct-24 12:30N 59°54' E 010°45'0 0.0
2014-Oct-24 11:30N 59°54' E 010°45'0 0.0
2014-Oct-24 10:30N 59°54' E 010°45'0 0.0
2014-Oct-24 09:33N 59°54' E 010°45'0 0.0
2014-Oct-24 08:33N 59°54' E 010°45'0 0.1
2014-Oct-24 07:34N 59°54' E 010°45'3213.5
2014-Oct-24 05:10N 59°22' E 010°35'1016.7
2014-Oct-24 04:33N 59°12' E 010°39'1716.4
2014-Oct-24 03:33N 58°56' E 010°42'1816.9
2014-Oct-24 02:31N 58°38' E 010°48'1616.9
2014-Oct-24 01:34N 58°23' E 010°57'1716.8
2014-Oct-24 00:33N 58°07' E 011°07'1716.6
2014-Oct-23 23:34N 57°51' E 011°17'1716.6
2014-Oct-23 22:33N 57°35' E 011°25'1616.0
2014-Oct-23 21:34N 57°20' E 011°34'1515.4
2014-Oct-23 20:34N 57°05' E 011°43'1515.1
2014-Oct-23 19:33N 56°51' E 011°51'1515.2
2014-Oct-23 18:33N 56°36' E 011°59'1515.0
2014-Oct-23 17:34N 56°23' E 012°11'1616.0
2014-Oct-23 16:34N 56°10' E 012°29'1716.8
2014-Oct-23 15:33N 55°56' E 012°44'1414.0
2014-Oct-23 14:34N 55°42' E 012°36'0 0.2
2014-Oct-23 13:31N 55°42' E 012°36'0 0.0
2014-Oct-23 12:31N 55°42' E 012°36'0 0.0
2014-Oct-23 11:31N 55°42' E 012°36'0 0.0
2014-Oct-23 10:31N 55°42' E 012°36'0 0.0
2014-Oct-23 09:31N 55°42' E 012°36'0 0.0
2014-Oct-23 08:31N 55°42' E 012°36'0 0.0
2014-Oct-23 07:31N 55°42' E 012°36'9 9.1
2014-Oct-23 06:34N 55°50' E 012°42'1414.1
2014-Oct-23 05:34N 56°04' E 012°37'1515.1
2014-Oct-23 04:34N 56°17' E 012°24'1615.7
2014-Oct-23 03:32N 56°33' E 012°15'1616.2
2014-Oct-23 02:33N 56°48' E 012°07'1716.8
2014-Oct-23 01:33N 57°04' E 011°58'1716.7
2014-Oct-23 00:33N 57°19' E 011°45'1716.8
2014-Oct-22 23:34N 57°34' E 011°31'1717.0
2014-Oct-22 22:33N 57°49' E 011°17'1616.3
2014-Oct-22 21:34N 58°05' E 011°08'1616.2
2014-Oct-22 20:34N 58°20' E 010°60'1615.6
2014-Oct-22 19:34N 58°35' E 010°51'1616.3
2014-Oct-22 18:33N 58°51' E 010°44'1817.6
2014-Oct-22 17:33N 59°09' E 010°39'1817.5
2014-Oct-22 16:33N 59°26' E 010°33'2015.8
2014-Oct-22 15:18N 59°46' E 010°33'1013.6
2014-Oct-22 14:33N 59°54' E 010°45'0 0.1
2014-Oct-22 13:31N 59°54' E 010°45'0 0.0
2014-Oct-22 12:31N 59°54' E 010°45'0 0.0
2014-Oct-22 11:22N 59°54' E 010°45'0 0.0
2014-Oct-22 10:25N 59°54' E 010°45'0 0.0
2014-Oct-22 09:25N 59°54' E 010°45'0 0.0
2014-Oct-22 08:25N 59°54' E 010°45'0 0.1
2014-Oct-22 07:33N 59°54' E 010°45'2813.5
2014-Oct-22 05:28N 59°26' E 010°34'1516.7
2014-Oct-22 04:33N 59°12' E 010°39'1616.4
2014-Oct-22 03:33N 58°55' E 010°36'1715.8
2014-Oct-22 02:28N 58°38' E 010°33'1516.5
2014-Oct-22 01:33N 58°24' E 010°43'1716.5
2014-Oct-22 00:33N 58°09' E 010°54'1616.1
2014-Oct-21 23:33N 57°53' E 011°02'1616.3
2014-Oct-21 22:33N 57°39' E 011°17'1616.1
2014-Oct-21 21:33N 57°24' E 011°31'1616.3
2014-Oct-21 20:33N 57°09' E 011°40'1616.4
2014-Oct-21 19:33N 56°53' E 011°50'1716.6
2014-Oct-21 18:33N 56°39' E 012°06'1716.6
2014-Oct-21 17:33N 56°24' E 012°19'1616.3
2014-Oct-21 16:33N 56°09' E 012°31'1615.9
2014-Oct-21 15:33N 55°55' E 012°44'1413.7
2014-Oct-21 14:33N 55°42' E 012°36'0 0.0
2014-Oct-21 13:33N 55°42' E 012°36'0 0.0
2014-Oct-21 12:33N 55°42' E 012°36'0 0.0
2014-Oct-21 11:33N 55°42' E 012°36'  
Track history (hours):
 
Tides and Currents Weather Stations Pressure Air Temp Water Temp Dewpoint Dewpoint Depression Visibility Wind Speed Wind Dir Waves Ship Positions

Pearl Of Scandinavia

Last reported at 2014-Oct-31 11:31 UTC. Time now 2014-Oct-31 12:08 UTC.
Position N 55°42' E 012°36'.

Length 176.4 m; beam 34 m; draft 6.215 m.

Type: Ship. MMSI: 219945000.

Date/timePositionNaut miles runAvg speedWind from/ knotsBaromVisibWave heightAir tempDewpointWater temp
2014-Oct-31 11:31N 55°42' E 012°36'0 0.0
2014-Oct-31 10:31N 55°42' E 012°36'0 0.0
2014-Oct-31 09:31N 55°42' E 012°36'0 0.4
2014-Oct-31 08:33N 55°42' E 012°36'1110.7
2014-Oct-31 07:34N 55°53' E 012°40'1313.1
2014-Oct-31 06:33N 56°06' E 012°34'1414.4
2014-Oct-31 05:33N 56°18' E 012°23'1615.5
2014-Oct-31 04:31N 56°34' E 012°17'1515.5
2014-Oct-31 03:33N 56°49' E 012°11'1616.0
2014-Oct-31 02:32N 57°04' E 012°00'1616.7
2014-Oct-31 01:33N 57°19' E 011°47'1717.0
2014-Oct-31 00:33N 57°33' E 011°30'1716.9
2014-Oct-30 23:34N 57°49' E 011°17'1716.8
2014-Oct-30 22:34N 58°05' E 011°08'1716.7
2014-Oct-30 21:33N 58°21' E 010°59'1716.7
2014-Oct-30 20:33N 58°37' E 010°50'1716.6
2014-Oct-30 19:34N 58°53' E 010°44'1716.7
2014-Oct-30 18:33N 59°09' E 010°38'1717.3
2014-Oct-30 17:33N 59°26' E 010°33'1914.9
2014-Oct-30 16:16N 59°46' E 010°33'1014.0
2014-Oct-30 15:33N 59°54' E 010°44'0 0.4
2014-Oct-30 14:32N 59°54' E 010°45'0 0.0
2014-Oct-30 13:32N 59°54' E 010°45'0 0.0
2014-Oct-30 12:32N 59°54' E 010°45'0 0.0
2014-Oct-30 11:20N 59°54' E 010°45'0 0.0
2014-Oct-30 10:23N 59°54' E 010°45'0 0.0
2014-Oct-30 09:20N 59°54' E 010°45'0 0.1
2014-Oct-30 08:33N 59°54' E 010°45'2813.3
2014-Oct-30 06:27N 59°27' E 010°34'1415.6
2014-Oct-30 05:33N 59°13' E 010°38'1615.9
2014-Oct-30 04:33N 58°57' E 010°43'1716.2
2014-Oct-30 03:29N 58°40' E 010°49'1617.1
2014-Oct-30 02:34N 58°24' E 010°56'1717.0
2014-Oct-30 01:33N 58°08' E 011°07'1717.0
2014-Oct-30 00:33N 57°52' E 011°16'1716.6
2014-Oct-29 23:33N 57°36' E 011°25'1616.4
2014-Oct-29 22:33N 57°21' E 011°34'1816.3
2014-Oct-29 21:27N 57°04' E 011°44'1516.4
2014-Oct-29 20:32N 56°50' E 011°55'1616.3
2014-Oct-29 19:33N 56°36' E 012°10'1716.6
2014-Oct-29 18:33N 56°21' E 012°22'1616.1
2014-Oct-29 17:33N 56°06' E 012°34'1414.3
2014-Oct-29 16:33N 55°53' E 012°44'1212.0
2014-Oct-29 15:33N 55°42' E 012°36'0 0.0
2014-Oct-29 14:31N 55°42' E 012°36'0 0.0
2014-Oct-29 13:31N 55°42' E 012°36'0 0.0
2014-Oct-29 12:31N 55°42' E 012°36'0 0.0
2014-Oct-29 11:31N 55°42' E 012°36'0 0.0
2014-Oct-29 10:31N 55°42' E 012°36'0 0.0
2014-Oct-29 09:28N 55°42' E 012°36'4 4.2
2014-Oct-29 08:33N 55°45' E 012°40'1716.7
2014-Oct-29 07:33N 56°02' E 012°40'1616.4
2014-Oct-29 06:33N 56°16' E 012°25'1716.8
2014-Oct-29 05:31N 56°32' E 012°15'1616.5
2014-Oct-29 04:33N 56°48' E 012°07'1716.5
2014-Oct-29 03:33N 57°03' E 011°58'1716.6
2014-Oct-29 02:33N 57°19' E 011°46'1716.9
2014-Oct-29 01:33N 57°33' E 011°30'1716.7
2014-Oct-29 00:33N 57°49' E 011°17'1615.9
2014-Oct-28 23:33N 58°03' E 011°07'1514.6
2014-Oct-28 22:33N 58°18' E 011°00'1414.3
2014-Oct-28 21:33N 58°31' E 010°53'1414.0
2014-Oct-28 20:33N 58°45' E 010°46'1413.9
2014-Oct-28 19:34N 58°59' E 010°42'1515.1
2014-Oct-28 18:33N 59°14' E 010°37'1616.1
2014-Oct-28 17:33N 59°30' E 010°34'2512.6
2014-Oct-28 15:33N 59°54' E 010°45'0 0.0
2014-Oct-28 14:33N 59°54' E 010°45'0 0.0
2014-Oct-28 13:33N 59°54' E 010°45'0 0.0
2014-Oct-28 11:18N 59°54' E 010°45'0 0.0
2014-Oct-28 10:24N 59°54' E 010°45'0 0.0
2014-Oct-28 09:24N 59°54' E 010°45'0 0.0
2014-Oct-28 08:33N 59°54' E 010°45'2813.0
2014-Oct-28 06:26N 59°27' E 010°34'1516.8
2014-Oct-28 05:33N 59°13' E 010°38'1616.2
2014-Oct-28 04:33N 58°57' E 010°42'1616.0
2014-Oct-28 03:33N 58°41' E 010°46'1615.9
2014-Oct-28 02:33N 58°26' E 010°56'1616.0
2014-Oct-28 01:33N 58°10' E 011°05'1616.1
2014-Oct-28 00:33N 57°55' E 011°15'1616.0
2014-Oct-27 23:33N 57°40' E 011°23'1616.3
2014-Oct-27 22:33N 57°24' E 011°32'1616.4
2014-Oct-27 21:33N 57°09' E 011°41'1616.1
2014-Oct-27 20:33N 56°53' E 011°51'1615.7
2014-Oct-27 19:33N 56°40' E 012°07'1716.6
2014-Oct-27 18:33N 56°25' E 012°19'1716.6
2014-Oct-27 17:34N 56°10' E 012°30'1615.6
2014-Oct-27 16:34N 55°56' E 012°43'1414.1
2014-Oct-27 15:33N 55°43' E 012°37'1 0.6
2014-Oct-27 14:32N 55°42' E 012°36'0 0.0
2014-Oct-27 13:32N 55°42' E 012°36'0 0.0
2014-Oct-27 12:32N 55°42' E 012°36'0 0.0
2014-Oct-27 11:32N 55°42' E 012°36'0 0.0
2014-Oct-27 10:32N 55°42' E 012°36'0 0.0
2014-Oct-27 09:32N 55°42' E 012°36'0 0.4
2014-Oct-27 08:34N 55°42' E 012°36'1514.6
2014-Oct-27 07:33N 55°57' E 012°40'1817.5
2014-Oct-27 06:33N 56°13' E 012°27'1717.5
2014-Oct-27 05:33N 56°29' E 012°17'1717.0
2014-Oct-27 04:33N 56°46' E 012°08'1717.0
2014-Oct-27 03:33N 57°02' E 011°59'1717.1
2014-Oct-27 02:33N 57°18' E 011°48'1817.9
2014-Oct-27 01:33N 57°33' E 011°30'1717.0
2014-Oct-27 00:34N 57°48' E 011°17'1615.6
2014-Oct-26 23:33N 58°03' E 011°08'1514.8
2014-Oct-26 22:33N 58°18' E 011°01'1414.0
2014-Oct-26 21:33N 58°31' E 010°53'1313.1
2014-Oct-26 20:33N 58°44' E 010°47'1313.3
2014-Oct-26 19:34N 58°57' E 010°43'1414.2
2014-Oct-26 18:33N 59°11' E 010°38'1616.2
2014-Oct-26 17:33N 59°27' E 010°33'2813.9
2014-Oct-26 15:33N 59°54' E 010°44'1 0.5
2014-Oct-26 14:31N 59°54' E 010°45'0 0.0
2014-Oct-26 13:31N 59°54' E 010°45'0 0.0
2014-Oct-26 12:22N 59°54' E 010°45'0 0.0
2014-Oct-26 11:34N 59°54' E 010°45'0 0.0
2014-Oct-26 10:25N 59°54' E 010°45'0 0.0
2014-Oct-26 09:25N 59°54' E 010°45'0 0.2
2014-Oct-26 08:33N 59°54' E 010°45'3213.2
2014-Oct-26 06:07N 59°22' E 010°35'916.0
2014-Oct-26 05:33N 59°13' E 010°38'1615.7
2014-Oct-26 04:34N 58°58' E 010°42'1515.1
2014-Oct-26 03:32N 58°42' E 010°45'1515.6
2014-Oct-26 02:33N 58°28' E 010°53'1615.6
2014-Oct-26 01:33N 58°13' E 011°02'1615.5
2014-Oct-26 00:33N 57°58' E 011°12'1515.5
2014-Oct-25 23:34N 57°43' E 011°20'1515.1
2014-Oct-25 22:34N 57°29' E 011°29'1515.0
2014-Oct-25 21:34N 57°15' E 011°37'1515.1
2014-Oct-25 20:34N 57°00' E 011°46'1515.0
2014-Oct-25 19:33N 56°46' E 011°55'1514.7
2014-Oct-25 18:33N 56°32' E 012°01'1414.5
2014-Oct-25 17:33N 56°20' E 012°16'1514.6
2014-Oct-25 16:33N 56°08' E 012°31'1514.6
2014-Oct-25 15:34N 55°56' E 012°44'1413.7
2014-Oct-25 14:33N 55°42' E 012°36'0 0.4
2014-Oct-25 13:32N 55°42' E 012°36'0 0.0
2014-Oct-25 12:32N 55°42' E 012°36'0 0.0
2014-Oct-25 11:32N 55°42' E 012°36'0 0.0
2014-Oct-25 10:32N 55°42' E 012°36'0 0.0
2014-Oct-25 09:32N 55°42' E 012°36'0 0.0
2014-Oct-25 08:32N 55°42' E 012°36'3 2.7
2014-Oct-25 07:33N 55°44' E 012°40'1515.4
2014-Oct-25 06:33N 55°59' E 012°40'1717.0
2014-Oct-25 05:33N 56°14' E 012°25'2118.1
2014-Oct-25 04:24N 56°34' E 012°13'1517.8
2014-Oct-25 03:33N 56°48' E 012°07'1817.7
2014-Oct-25 02:33N 57°05' E 011°58'2017.1
2014-Oct-25 01:24N 57°23' E 011°41'1416.6
2014-Oct-25 00:33N 57°34' E 011°26'1717.0
2014-Oct-24 23:33N 57°48' E 011°07'1616.2
2014-Oct-24 22:33N 58°03' E 010°56'1616.5
2014-Oct-24 21:33N 58°19' E 010°45'1615.5
2014-Oct-24 20:33N 58°33' E 010°35'1715.1
2014-Oct-24 19:25N 58°51' E 010°35'1213.9
2014-Oct-24 18:33N 59°02' E 010°37'1313.4
2014-Oct-24 17:33N 59°16' E 010°36'1413.5
2014-Oct-24 16:33N 59°29' E 010°34'2512.6
2014-Oct-24 14:34N 59°54' E 010°44'0 0.2
2014-Oct-24 13:30N 59°54' E 010°45'0 0.0
2014-Oct-24 12:30N 59°54' E 010°45'0 0.0
2014-Oct-24 11:30N 59°54' E 010°45'0 0.0
2014-Oct-24 10:30N 59°54' E 010°45'0 0.0
2014-Oct-24 09:33N 59°54' E 010°45'0 0.0
2014-Oct-24 08:33N 59°54' E 010°45'0 0.1
2014-Oct-24 07:34N 59°54' E 010°45'3213.5
2014-Oct-24 05:10N 59°22' E 010°35'1016.7
2014-Oct-24 04:33N 59°12' E 010°39'1716.4
2014-Oct-24 03:33N 58°56' E 010°42'1816.9
2014-Oct-24 02:31N 58°38' E 010°48'1616.9
2014-Oct-24 01:34N 58°23' E 010°57'1716.8
2014-Oct-24 00:33N 58°07' E 011°07'1716.6
2014-Oct-23 23:34N 57°51' E 011°17'1716.6
2014-Oct-23 22:33N 57°35' E 011°25'1616.0
2014-Oct-23 21:34N 57°20' E 011°34'1515.4
2014-Oct-23 20:34N 57°05' E 011°43'1515.1
2014-Oct-23 19:33N 56°51' E 011°51'1515.2
2014-Oct-23 18:33N 56°36' E 011°59'1515.0
2014-Oct-23 17:34N 56°23' E 012°11'1616.0
2014-Oct-23 16:34N 56°10' E 012°29'1716.8
2014-Oct-23 15:33N 55°56' E 012°44'1414.0
2014-Oct-23 14:34N 55°42' E 012°36'0 0.2
2014-Oct-23 13:31N 55°42' E 012°36'0 0.0
2014-Oct-23 12:31N 55°42' E 012°36'0 0.0
2014-Oct-23 11:31N 55°42' E 012°36'0 0.0
2014-Oct-23 10:31N 55°42' E 012°36'0 0.0
2014-Oct-23 09:31N 55°42' E 012°36'0 0.0
2014-Oct-23 08:31N 55°42' E 012°36'0 0.0
2014-Oct-23 07:31N 55°42' E 012°36'9 9.1
2014-Oct-23 06:34N 55°50' E 012°42'1414.1
2014-Oct-23 05:34N 56°04' E 012°37'1515.1
2014-Oct-23 04:34N 56°17' E 012°24'1615.7
2014-Oct-23 03:32N 56°33' E 012°15'1616.2
2014-Oct-23 02:33N 56°48' E 012°07'1716.8
2014-Oct-23 01:33N 57°04' E 011°58'1716.7
2014-Oct-23 00:33N 57°19' E 011°45'1716.8
2014-Oct-22 23:34N 57°34' E 011°31'1717.0
2014-Oct-22 22:33N 57°49' E 011°17'1616.3
2014-Oct-22 21:34N 58°05' E 011°08'1616.2
2014-Oct-22 20:34N 58°20' E 010°60'1615.6
2014-Oct-22 19:34N 58°35' E 010°51'1616.3
2014-Oct-22 18:33N 58°51' E 010°44'1817.6
2014-Oct-22 17:33N 59°09' E 010°39'1817.5
2014-Oct-22 16:33N 59°26' E 010°33'2015.8
2014-Oct-22 15:18N 59°46' E 010°33'1013.6
2014-Oct-22 14:33N 59°54' E 010°45'0 0.1
2014-Oct-22 13:31N 59°54' E 010°45'0 0.0
2014-Oct-22 12:31N 59°54' E 010°45'0 0.0
2014-Oct-22 11:22N 59°54' E 010°45'0 0.0
2014-Oct-22 10:25N 59°54' E 010°45'0 0.0
2014-Oct-22 09:25N 59°54' E 010°45'0 0.0
2014-Oct-22 08:25N 59°54' E 010°45'0 0.1
2014-Oct-22 07:33N 59°54' E 010°45'2813.5
2014-Oct-22 05:28N 59°26' E 010°34'1516.7
2014-Oct-22 04:33N 59°12' E 010°39'1616.4
2014-Oct-22 03:33N 58°55' E 010°36'1715.8
2014-Oct-22 02:28N 58°38' E 010°33'1516.5
2014-Oct-22 01:33N 58°24' E 010°43'1716.5
2014-Oct-22 00:33N 58°09' E 010°54'1616.1
2014-Oct-21 23:33N 57°53' E 011°02'1616.3
2014-Oct-21 22:33N 57°39' E 011°17'1616.1
2014-Oct-21 21:33N 57°24' E 011°31'1616.3
2014-Oct-21 20:33N 57°09' E 011°40'1616.4
2014-Oct-21 19:33N 56°53' E 011°50'1716.6
2014-Oct-21 18:33N 56°39' E 012°06'1716.6
2014-Oct-21 17:33N 56°24' E 012°19'1616.3
2014-Oct-21 16:33N 56°09' E 012°31'1615.9
2014-Oct-21 15:33N 55°55' E 012°44'1413.7
2014-Oct-21 14:33N 55°42' E 012°36'0 0.0
2014-Oct-21 13:33N 55°42' E 012°36'0 0.0
2014-Oct-21 12:33N 55°42' E 012°36'0 0.0
2014-Oct-21 11:33N 55°42' E 012°36'  

Dump ship's entire track history